Hot Springs, Montana
Current Conditions -  °F | °C
As of 12:07 AM on Friday 28 Nov 2014 (Local Time) from KMLP Reporting Station
Moderate Rain Moderate Rain  
Wind Chill: 27°   Ceiling: 300
Heat Index: 36°   Visibility: 1mi
Dew Point: 36°   Wind: 15mph
Humidity: 100%   Direction: 220°SW
Pressure: 29.75"   Gusts: 30mph
Location:  47.61°N, 114.67°W
Report Text: KMLP 280707Z AUTO 22013G26KT 180V250 1SM RA BR BKN003 OVC008 02/02 A2975 RMK AO2 PK WND 24026/0658 P0003 T00220022
Loading
Personal Weather Stations






























Interactive Weather Map New forecast layout! Learn more

10-Day Weather Forecast

Advertisements
Track Severe Weather on mobile